KSAT/SAT METAR and TAF weather

Enter ICAO airport designator
Station Type Date Time Source
KSAT METAR 2020/01/19 22:51 UTC NOAA

KSAT 192251Z 07010KT 10SM FEW120 FEW250 14/M06 A3043 RMK AO2 SLP294 T01441061


Station Type Date Time Source
KSAT Decoded METAR 2020/01/19 22:51 UTC NOAA

SAN ANTONIO INTERNATIONAL AIRPORT , TX, United States (KSAT) 29-32N 098-28W 243M
Jan 19, 2020 - 05:51 PM EST / 2020.01.19 2251 UTC
Wind: from the ENE (070 degrees) at 12 MPH (10 KT):0
Visibility: 10 mile(s):0
Sky conditions: mostly clear
Temperature: 57.9 F (14.4 C)
Dew Point: 21.0 F (-6.1 C)
Relative Humidity: 23%
Pressure (altimeter): 30.43 in. Hg (1030 hPa)
ob: KSAT 192251Z 07010KT 10SM FEW120 FEW250 14/M06 A3043 RMK AO2 SLP294 T01441061
cycle: 23

Station Type Date Time Source
KSAT TAF 2020/01/19 18:24 UTC NOAA

TAF KSAT 191720Z 1918/2024 04013KT P6SM SKC
FM200100 01005KT P6SM FEW080
FM201800 08005KT P6SM BKN080

Example: see airport list